Catacamas, Honduras
Current Conditions -  °F | °C
As of 8:00 AM on Friday 31 Oct 2014 (Local Time) from MHCA Reporting Station
Broken Clouds Broken Clouds  
Wind Chill: 24°   Ceiling: 2600
Heat Index: 24°   Visibility: 6mi
Dew Point: 22°   Wind: 0mph
Humidity: 89%   Direction: NA
Pressure: 29.97"   Gusts: NA
Location:  14.85°N, 85.89°W
Report Text: MHCA 311400Z 00000KT 9999 BKN026 24/22 Q1015 HZ
Loading
Personal Weather Stations






























Interactive Weather Map
Tropical Storm Tracking
New forecast layout! Learn more

10-Day Weather Forecast

Advertisements
Track Severe Weather on mobile